Time;durP1;ratioP1;P1;durP2;ratioP2;P2;SDS_P1;SDS_P2;PMS_P1;PMS_P2;Temp;Humidity;BMP_temperature;BMP_pressure;BME280_temperature;BME280_humidity;BME280_pressure;Samples;Min_cycle;Max_cycle;Signal;HPM_P1;HPM_P2
2023/01/23 00:01:51;;;;;;;;;;;;;;;6.07;100.00;103663.78;5062430;28;1934;-80
2023/01/23 00:04:17;;;;;;;;;;;;;;;6.01;100.00;103661.22;5059989;28;747;-80
2023/01/23 00:06:43;;;;;;;;;;;;;;;5.96;100.00;103663.06;5060481;28;818;-81
2023/01/23 00:09:09;;;;;;;;;;;;;;;5.94;100.00;103665.78;5060050;28;833;-81
2023/01/23 00:11:35;;;;;;;;;;;;;;;5.95;100.00;103674.63;5060306;28;1276;-80
2023/01/23 00:14:02;;;;;;;;;;;;;;;5.90;100.00;103669.41;5060341;28;915;-80
2023/01/23 00:16:30;;;;;;;;;;;;;;;5.94;100.00;103668.44;5060202;28;718;-80
2023/01/23 00:18:57;;;;;;;;;;;;;;;5.94;100.00;103673.75;5059472;28;806;-80
2023/01/23 00:21:26;;;;;;;;;;;;;;;5.95;100.00;103670.19;5059964;28;1890;-80
2023/01/23 00:23:58;;;;;;;;;;;;;;;5.98;100.00;103664.81;5060486;28;846;-80
2023/01/23 00:26:26;;;;;;;;;;;;;;;6.00;100.00;103662.16;5060109;28;806;-80
2023/01/23 00:28:53;;;;;;;;;;;;;;;6.03;100.00;103660.28;5060250;28;838;-80
2023/01/23 00:31:25;;;;;;;;;;;;;;;5.99;100.00;103669.22;5059875;28;1192;-80
2023/01/23 00:33:57;;;;;;;;;;;;;;;5.97;100.00;103668.38;5060106;28;791;-80
2023/01/23 00:36:26;;;;;;;;;;;;;;;6.01;100.00;103672.78;5060296;28;821;-80
2023/01/23 00:38:52;;;;;;;;;;;;;;;5.79;100.00;103670.41;5058315;28;958;-80
2023/01/23 00:41:18;;;;;;;;;;;;;;;5.76;100.00;103679.34;5059888;28;1963;-80
2023/01/23 00:43:45;;;;;;;;;;;;;;;5.90;100.00;103685.38;5060900;28;904;-80
2023/01/23 00:46:11;;;;;;;;;;;;;;;6.07;100.00;103676.22;5060853;28;585;-80
2023/01/23 00:48:37;;;;;;;;;;;;;;;6.12;100.00;103680.59;5058552;28;975;-80
2023/01/23 00:51:03;;;;;;;;;;;;;;;6.10;100.00;103682.41;5060239;28;1189;-80
2023/01/23 00:53:29;;;;;;;;;;;;;;;6.08;100.00;103685.97;5060406;28;834;-80
2023/01/23 00:55:55;;;;;;;;;;;;;;;6.06;100.00;103680.69;5060469;28;919;-80
2023/01/23 00:58:21;;;;;;;;;;;;;;;6.07;100.00;103685.09;5059923;28;886;-80
2023/01/23 01:00:47;;;;;;;;;;;;;;;6.07;100.00;103682.44;5059000;28;1980;-80
2023/01/23 01:03:13;;;;;;;;;;;;;;;6.07;100.00;103678.88;5060881;28;843;-80
2023/01/23 01:05:39;;;;;;;;;;;;;;;6.01;100.00;103678.09;5060186;28;908;-80
2023/01/23 01:08:05;;;;;;;;;;;;;;;5.93;100.00;103679.13;5060458;28;822;-80
2023/01/23 01:10:32;;;;;;;;;;;;;;;5.90;100.00;103682.72;5060682;28;1288;-80
2023/01/23 01:13:00;;;;;;;;;;;;;;;5.89;100.00;103675.56;5060216;28;743;-80
2023/01/23 01:15:27;;;;;;;;;;;;;;;5.84;100.00;103679.22;5060932;28;767;-80
2023/01/23 01:17:53;;;;;;;;;;;;;;;5.80;100.00;103675.75;5060464;28;812;-80
2023/01/23 01:20:24;;;;;;;;;;;;;;;5.75;100.00;103674.91;5060645;28;1883;-80
2023/01/23 01:22:52;;;;;;;;;;;;;;;5.79;100.00;103681.94;5060456;28;597;-80
2023/01/23 01:25:18;;;;;;;;;;;;;;;5.80;100.00;103686.41;5060970;28;847;-81
2023/01/23 01:27:44;;;;;;;;;;;;;;;5.82;100.00;103681.91;5060454;28;893;-80
2023/01/23 01:30:11;;;;;;;;;;;;;;;5.77;100.00;103683.75;5060747;28;1331;-80
2023/01/23 01:32:39;;;;;;;;;;;;;;;5.79;100.00;103691.72;5060805;28;825;-80
2023/01/23 01:35:06;;;;;;;;;;;;;;;5.81;100.00;103695.25;5060762;28;898;-80
2023/01/23 01:37:33;;;;;;;;;;;;;;;5.76;100.00;103688.19;5061044;28;927;-80
2023/01/23 01:40:00;;;;;;;;;;;;;;;5.73;100.00;103690.03;5060572;28;814;-80
2023/01/23 01:42:27;;;;;;;;;;;;;;;5.73;100.00;103695.38;5060922;28;1902;-80
2023/01/23 01:45:01;;;;;;;;;;;;;;;5.69;100.00;103690.97;5061137;28;1013;-80
2023/01/23 01:47:27;;;;;;;;;;;;;;;5.58;100.00;103690.25;5061334;28;902;-80
2023/01/23 01:49:58;;;;;;;;;;;;;;;5.62;100.00;103681.34;5061253;28;802;-81
2023/01/23 01:52:25;;;;;;;;;;;;;;;5.50;100.00;103687.69;5061214;28;1319;-80
2023/01/23 01:54:52;;;;;;;;;;;;;;;5.47;100.00;103696.59;5061380;28;806;-80
2023/01/23 01:57:26;;;;;;;;;;;;;;;5.57;100.00;103696.47;5061589;28;814;-80
2023/01/23 01:59:58;;;;;;;;;;;;;;;5.65;100.00;103699.91;5062529;28;530;-80
2023/01/23 02:02:28;;;;;;;;;;;;;;;5.69;100.00;103707.81;5061775;28;1879;-80
2023/01/23 02:05:09;;;;;;;;;;;;;;;5.77;100.00;103710.38;5061106;28;624;-81
2023/01/23 02:07:47;;;;;;;;;;;;;;;5.83;100.00;103712.97;5061753;28;553;-80
2023/01/23 02:10:15;;;;;;;;;;;;;;;5.79;100.00;103713.03;5061430;28;1370;-80
2023/01/23 02:12:48;;;;;;;;;;;;;;;5.79;100.00;103718.34;5062625;28;888;-80
2023/01/23 02:15:16;;;;;;;;;;;;;;;5.81;100.00;103709.47;5060747;28;544;-80
2023/01/23 02:17:43;;;;;;;;;;;;;;;5.84;100.00;103719.19;5062060;28;811;-80
2023/01/23 02:20:22;;;;;;;;;;;;;;;5.88;100.00;103726.22;5061612;28;1205;-80
2023/01/23 02:23:04;;;;;;;;;;;;;;;5.86;100.00;103723.56;5062565;28;1964;-80
2023/01/23 02:25:41;;;;;;;;;;;;;;;5.80;100.00;103715.69;5062217;28;584;-80
2023/01/23 02:28:08;;;;;;;;;;;;;;;5.75;100.00;103706.88;5058586;28;596;-80
2023/01/23 02:30:36;;;;;;;;;;;;;;;5.76;100.00;103705.97;5057455;28;1209;-80
2023/01/23 02:33:29;;;;;;;;;;;;;;;5.67;100.00;103704.31;5058443;28;801;-80
2023/01/23 02:35:56;;;;;;;;;;;;;;;5.68;100.00;103708.72;5050243;28;1321;-80
2023/01/23 02:38:25;;;;;;;;;;;;;;;5.68;100.00;103713.19;5058482;28;933;-80
2023/01/23 02:40:54;;;;;;;;;;;;;;;5.61;100.00;103708.88;5058333;28;1879;-80
2023/01/23 02:43:25;;;;;;;;;;;;;;;5.65;100.00;103721.22;5060791;28;842;-80
2023/01/23 02:45:53;;;;;;;;;;;;;;;5.66;100.00;103715.00;5062598;28;974;-80
2023/01/23 02:48:19;;;;;;;;;;;;;;;5.68;100.00;103721.16;5062326;28;845;-80
2023/01/23 02:50:45;;;;;;;;;;;;;;;5.71;100.00;103724.69;5062577;28;1189;-80
2023/01/23 02:53:12;;;;;;;;;;;;;;;5.74;100.00;103719.31;5062450;28;806;-80
2023/01/23 02:55:42;;;;;;;;;;;;;;;5.74;100.00;103724.63;5062094;28;947;-80
2023/01/23 03:00:52;;;;;;;;;;;;;;;5.78;100.00;103729.91;5062476;28;1898;-80
2023/01/23 03:03:18;;;;;;;;;;;;;;;5.77;100.00;103729.03;5062604;28;827;-80
2023/01/23 03:05:46;;;;;;;;;;;;;;;5.69;100.00;103725.59;5061022;28;1070;-80
2023/01/23 03:08:11;;;;;;;;;;;;;;;5.66;100.00;103731.84;5062872;28;973;-80
2023/01/23 03:10:38;;;;;;;;;;;;;;;5.67;100.00;103733.59;5062209;28;1173;-80
2023/01/23 03:13:06;;;;;;;;;;;;;;;5.67;100.00;103732.72;5061760;28;920;-80
2023/01/23 03:15:37;;;;;;;;;;;;;;;5.72;100.00;103737.09;5061763;28;807;-80
2023/01/23 03:18:03;;;;;;;;;;;;;;;5.74;100.00;103727.31;5062680;28;743;-80
2023/01/23 03:20:37;;;;;;;;;;;;;;;5.77;100.00;103723.72;5062184;28;1185;-80
2023/01/23 03:23:03;;;;;;;;;;;;;;;5.77;100.00;103718.38;5062679;28;1894;-80
2023/01/23 03:25:29;;;;;;;;;;;;;;;5.78;100.00;103727.25;5062061;28;897;-80
2023/01/23 03:27:55;;;;;;;;;;;;;;;5.78;100.00;103724.59;5061751;28;887;-80
2023/01/23 03:30:21;;;;;;;;;;;;;;;5.81;100.00;103727.22;5058691;28;1299;-80
2023/01/23 03:32:47;;;;;;;;;;;;;;;5.82;100.00;103727.19;5058815;28;807;-80
2023/01/23 03:35:15;;;;;;;;;;;;;;;5.84;100.00;103728.06;5059477;28;921;-80
2023/01/23 03:37:45;;;;;;;;;;;;;;;5.86;100.00;103736.00;5058774;28;805;-80
2023/01/23 03:43:05;;;;;;;;;;;;;;;5.90;100.00;103738.66;5058640;28;1906;-80
2023/01/23 03:45:31;;;;;;;;;;;;;;;5.90;100.00;103738.66;5058866;28;947;-80
2023/01/23 03:47:57;;;;;;;;;;;;;;;5.90;100.00;103732.38;5058689;28;799;-80
2023/01/23 03:50:23;;;;;;;;;;;;;;;5.90;100.00;103736.00;5058663;28;1312;-80
2023/01/23 03:52:49;;;;;;;;;;;;;;;5.90;100.00;103743.03;5059376;28;857;-80
2023/01/23 03:55:15;;;;;;;;;;;;;;;5.90;100.00;103749.31;5056019;28;870;-80
2023/01/23 03:57:41;;;;;;;;;;;;;;;5.92;100.00;103752.84;5058459;28;902;-80
2023/01/23 04:00:08;;;;;;;;;;;;;;;5.91;100.00;103751.09;5057907;28;1216;-80
2023/01/23 04:02:34;;;;;;;;;;;;;;;5.91;100.00;103750.19;5058240;28;1910;-80
2023/01/23 04:05:00;;;;;;;;;;;;;;;5.91;100.00;103750.19;5058234;28;854;-80
2023/01/23 04:07:25;;;;;;;;;;;;;;;5.91;100.00;103748.41;5058225;28;833;-80
2023/01/23 04:09:51;;;;;;;;;;;;;;;5.89;100.00;103750.16;5058294;28;906;-80
2023/01/23 04:12:17;;;;;;;;;;;;;;;5.88;100.00;103758.19;5057817;28;1300;-80
2023/01/23 04:14:43;;;;;;;;;;;;;;;5.81;100.00;103757.41;5059025;28;936;-80
2023/01/23 04:17:09;;;;;;;;;;;;;;;5.77;100.00;103766.31;5058690;28;916;-80
2023/01/23 04:19:35;;;;;;;;;;;;;;;5.75;100.00;103765.47;5059888;28;842;-80
2023/01/23 04:22:03;;;;;;;;;;;;;;;5.74;100.00;103766.38;5058214;28;1967;-80
2023/01/23 04:24:29;;;;;;;;;;;;;;;5.78;100.00;103765.41;5057777;28;830;-80
2023/01/23 04:26:55;;;;;;;;;;;;;;;5.75;100.00;103762.81;5057764;28;899;-80
2023/01/23 04:29:21;;;;;;;;;;;;;;;5.77;100.00;103766.31;5057697;28;820;-80
2023/01/23 04:31:47;;;;;;;;;;;;;;;5.73;100.00;103762.84;5057392;28;1205;-80
2023/01/23 04:34:13;;;;;;;;;;;;;;;5.75;100.00;103766.34;5062532;28;921;-80
2023/01/23 04:36:39;;;;;;;;;;;;;;;5.80;100.00;103768.06;5063172;28;847;-80
2023/01/23 04:39:05;;;;;;;;;;;;;;;5.80;100.00;103771.63;5063126;28;810;-80
2023/01/23 04:41:32;;;;;;;;;;;;;;;5.74;100.00;103785.03;5062450;28;1985;-80
2023/01/23 04:44:18;;;;;;;;;;;;;;;5.71;100.00;103777.09;5063326;28;953;-81
2023/01/23 04:46:49;;;;;;;;;;;;;;;5.72;100.00;103781.50;5062744;28;502;-80
2023/01/23 04:49:17;;;;;;;;;;;;;;;5.71;100.00;103785.06;5063969;28;552;-80
2023/01/23 04:51:44;;;;;;;;;;;;;;;5.69;100.00;103781.53;5061333;28;1205;-80
2023/01/23 04:54:11;;;;;;;;;;;;;;;5.68;100.00;103774.44;5056630;28;827;-80
2023/01/23 04:56:37;;;;;;;;;;;;;;;5.71;100.00;103780.63;5057092;28;815;-80
2023/01/23 04:59:03;;;;;;;;;;;;;;;5.67;100.00;103773.56;5056912;28;739;-80
2023/01/23 05:01:29;;;;;;;;;;;;;;;5.51;100.00;103787.97;5056543;28;1898;-80
2023/01/23 05:03:55;;;;;;;;;;;;;;;5.55;100.00;103786.16;5056661;28;995;-80
2023/01/23 05:06:21;;;;;;;;;;;;;;;5.61;100.00;103788.75;5056278;28;787;-80
2023/01/23 05:08:47;;;;;;;;;;;;;;;5.64;100.00;103783.38;5056438;28;819;-80
2023/01/23 05:11:13;;;;;;;;;;;;;;;5.71;100.00;103779.75;5057574;28;1181;-80
2023/01/23 05:13:39;;;;;;;;;;;;;;;5.73;100.00;103785.94;5058022;28;858;-80
2023/01/23 05:16:05;;;;;;;;;;;;;;;5.76;100.00;103794.75;5060107;28;842;-81
2023/01/23 05:18:31;;;;;;;;;;;;;;;5.76;100.00;103784.09;5059145;28;846;-80
2023/01/23 05:20:57;;;;;;;;;;;;;;;5.75;100.00;103785.00;5058881;28;1200;-80
2023/01/23 05:23:23;;;;;;;;;;;;;;;5.77;100.00;103787.63;5059975;28;1924;-80
2023/01/23 05:25:49;;;;;;;;;;;;;;;5.77;100.00;103782.31;5059294;28;837;-80
2023/01/23 05:28:15;;;;;;;;;;;;;;;5.77;100.00;103800.94;5059518;28;868;-80
2023/01/23 05:30:41;;;;;;;;;;;;;;;5.76;100.00;103809.84;5059221;28;1291;-80
2023/01/23 05:33:07;;;;;;;;;;;;;;;5.67;100.00;103805.50;5058357;28;868;-80
2023/01/23 05:35:33;;;;;;;;;;;;;;;5.66;100.00;103809.06;5059918;28;844;-80
2023/01/23 05:37:59;;;;;;;;;;;;;;;5.70;100.00;103808.16;5059539;28;910;-80
2023/01/23 05:40:25;;;;;;;;;;;;;;;5.75;100.00;103803.63;5059270;28;1221;-80
2023/01/23 05:42:51;;;;;;;;;;;;;;;5.77;100.00;103808.94;5059621;28;1898;-80
2023/01/23 05:45:17;;;;;;;;;;;;;;;5.78;100.00;103813.38;5059463;28;843;-80
2023/01/23 05:47:43;;;;;;;;;;;;;;;5.77;100.00;103814.25;5059520;28;818;-80
2023/01/23 05:50:15;;;;;;;;;;;;;;;5.70;100.00;103824.13;5059131;28;1304;-80
2023/01/23 05:52:41;;;;;;;;;;;;;;;5.55;100.00;103826.97;5059929;28;670;-80
2023/01/23 05:55:07;;;;;;;;;;;;;;;5.57;100.00;103825.16;5059417;28;834;-80
2023/01/23 05:57:34;;;;;;;;;;;;;;;5.50;100.00;103825.25;5059484;28;747;-80
2023/01/23 06:00:00;;;;;;;;;;;;;;;5.60;100.00;103834.88;5059695;28;864;-80
2023/01/23 06:02:26;;;;;;;;;;;;;;;5.66;100.00;103822.41;5059606;28;1901;-80
2023/01/23 06:04:52;;;;;;;;;;;;;;;5.73;100.00;103829.41;5059867;28;767;-80
2023/01/23 06:07:19;;;;;;;;;;;;;;;5.72;100.00;103835.66;5059435;28;884;-80
2023/01/23 06:09:45;;;;;;;;;;;;;;;5.66;100.00;103842.81;5060368;28;881;-80
2023/01/23 06:12:12;;;;;;;;;;;;;;;5.61;100.00;103839.34;5059649;28;1201;-80
2023/01/23 06:14:38;;;;;;;;;;;;;;;5.61;100.00;103840.22;5057185;28;810;-78
2023/01/23 06:17:04;;;;;;;;;;;;;;;5.56;100.00;103835.84;5056741;28;803;-79
2023/01/23 06:19:30;;;;;;;;;;;;;;;5.58;100.00;103836.69;5057016;28;652;-78
2023/01/23 06:21:56;;;;;;;;;;;;;;;5.59;100.00;103836.66;5056148;28;1969;-78
2023/01/23 06:24:23;;;;;;;;;;;;;;;5.62;100.00;103825.13;5056800;28;834;-79
2023/01/23 06:26:49;;;;;;;;;;;;;;;5.65;100.00;103836.63;5056407;28;897;-78
2023/01/23 06:29:15;;;;;;;;;;;;;;;5.57;100.00;103822.50;5056369;28;811;-78
2023/01/23 06:31:41;;;;;;;;;;;;;;;5.55;100.00;103826.09;5055660;28;1196;-78
2023/01/23 06:34:07;;;;;;;;;;;;;;;5.60;100.00;103832.22;5055660;28;849;-78
2023/01/23 06:36:33;;;;;;;;;;;;;;;5.56;100.00;103831.38;5055626;28;838;-78
2023/01/23 06:38:59;;;;;;;;;;;;;;;5.41;100.00;103837.78;5055572;28;799;-78
2023/01/23 06:41:25;;;;;;;;;;;;;;;5.34;100.00;103836.09;5055045;28;1189;-78
2023/01/23 06:43:52;;;;;;;;;;;;;;;5.43;100.00;103843.09;5055505;28;1898;-78
2023/01/23 06:46:18;;;;;;;;;;;;;;;5.53;100.00;103846.53;5055555;28;572;-78
2023/01/23 06:48:44;;;;;;;;;;;;;;;5.42;100.00;103846.66;5055953;28;826;-78
2023/01/23 06:51:10;;;;;;;;;;;;;;;5.38;100.00;103844.91;5054847;28;1201;-78
2023/01/23 06:53:36;;;;;;;;;;;;;;;5.43;100.00;103845.75;5055192;28;821;-78
2023/01/23 06:56:05;;;;;;;;;;;;;;;5.43;100.00;103840.44;5055386;28;794;-78
2023/01/23 06:58:33;;;;;;;;;;;;;;;5.47;100.00;103845.69;5055304;28;726;-78
2023/01/23 07:01:06;;;;;;;;;;;;;;;5.48;100.00;103855.44;5056520;28;1188;-78
2023/01/23 07:03:32;;;;;;;;;;;;;;;5.52;100.00;103856.31;5055221;28;1879;-78
2023/01/23 07:06:02;;;;;;;;;;;;;;;5.58;100.00;103853.56;5055697;28;735;-78
2023/01/23 07:08:28;;;;;;;;;;;;;;;5.62;100.00;103857.97;5055278;28;806;-78
2023/01/23 07:10:54;;;;;;;;;;;;;;;5.64;100.00;103864.16;5054855;28;1181;-78
2023/01/23 07:13:20;;;;;;;;;;;;;;;5.65;100.00;103860.56;5055286;28;925;-78
2023/01/23 07:15:46;;;;;;;;;;;;;;;5.61;100.00;103864.19;5054466;28;807;-78
2023/01/23 07:18:12;;;;;;;;;;;;;;;5.58;100.00;103865.97;5054553;28;738;-78
2023/01/23 07:20:38;;;;;;;;;;;;;;;5.61;100.00;103871.31;5054125;28;1295;-78
2023/01/23 07:23:04;;;;;;;;;;;;;;;5.64;100.00;103874.78;5054503;28;1898;-78
2023/01/23 07:25:30;;;;;;;;;;;;;;;5.70;100.00;103868.50;5054686;28;819;-78
2023/01/23 07:27:56;;;;;;;;;;;;;;;5.70;100.00;103866.75;5054236;28;919;-78
2023/01/23 07:30:22;;;;;;;;;;;;;;;5.71;100.00;103875.63;5057880;28;1177;-78
2023/01/23 07:32:48;;;;;;;;;;;;;;;5.73;100.00;103879.13;5058176;28;819;-78
2023/01/23 07:35:14;;;;;;;;;;;;;;;5.71;100.00;103884.50;5058105;28;944;-78
2023/01/23 07:37:40;;;;;;;;;;;;;;;5.70;100.00;103890.72;5057881;28;822;-78
2023/01/23 07:40:07;;;;;;;;;;;;;;;5.67;100.00;103895.19;5057182;28;1220;-78
2023/01/23 07:42:33;;;;;;;;;;;;;;;5.73;100.00;103897.78;5057897;28;1955;-78
2023/01/23 07:44:59;;;;;;;;;;;;;;;5.69;100.00;103898.69;5057716;28;957;-78
2023/01/23 07:47:25;;;;;;;;;;;;;;;5.71;100.00;103899.59;5057661;28;827;-78
2023/01/23 07:49:51;;;;;;;;;;;;;;;5.72;100.00;103901.34;5057930;28;826;-78
2023/01/23 07:52:17;;;;;;;;;;;;;;;5.71;100.00;103905.78;5057434;28;1291;-78
2023/01/23 07:54:43;;;;;;;;;;;;;;;5.72;100.00;103912.00;5058039;28;815;-78
2023/01/23 07:57:09;;;;;;;;;;;;;;;5.68;100.00;103918.25;5058263;28;798;-78
2023/01/23 07:59:35;;;;;;;;;;;;;;;5.68;100.00;103913.78;5058096;28;824;-78
2023/01/23 08:02:01;;;;;;;;;;;;;;;5.67;100.00;103919.16;5057696;28;1197;-78
2023/01/23 08:04:26;;;;;;;;;;;;;;;5.61;100.00;103922.78;5057700;28;1894;-78
2023/01/23 08:06:52;;;;;;;;;;;;;;;5.63;100.00;103920.09;5058057;28;911;-78
2023/01/23 08:09:18;;;;;;;;;;;;;;;5.67;100.00;103922.69;5058010;28;915;-78
2023/01/23 08:11:44;;;;;;;;;;;;;;;5.66;100.00;103928.03;5057435;28;1196;-78
2023/01/23 08:14:10;;;;;;;;;;;;;;;5.67;100.00;103919.16;5057717;28;834;-78
2023/01/23 08:16:36;;;;;;;;;;;;;;;5.67;100.00;103919.16;5057804;28;819;-78
2023/01/23 08:19:07;;;;;;;;;;;;;;;5.71;100.00;103928.88;5057377;28;886;-78
2023/01/23 08:21:33;;;;;;;;;;;;;;;5.73;100.00;103935.06;5057571;28;1275;-78
2023/01/23 08:24:03;;;;;;;;;;;;;;;5.75;100.00;103936.81;5057332;28;1902;-78
2023/01/23 08:26:29;;;;;;;;;;;;;;;5.79;100.00;103939.44;5057728;28;804;-78
2023/01/23 08:28:55;;;;;;;;;;;;;;;5.74;100.00;103936.84;5057964;28;790;-78
2023/01/23 08:31:21;;;;;;;;;;;;;;;5.74;100.00;103943.03;5057029;28;1185;-78
2023/01/23 08:33:47;;;;;;;;;;;;;;;5.76;100.00;103941.25;5057641;28;813;-78
2023/01/23 08:36:13;;;;;;;;;;;;;;;5.73;100.00;103933.28;5057446;28;818;-78
2023/01/23 08:38:39;;;;;;;;;;;;;;;5.76;100.00;103940.34;5057493;28;728;-78
2023/01/23 08:41:05;;;;;;;;;;;;;;;5.77;100.00;103944.78;5055987;28;1205;-78
2023/01/23 08:43:31;;;;;;;;;;;;;;;5.76;100.00;103943.91;5057816;28;1963;-78
2023/01/23 08:45:58;;;;;;;;;;;;;;;5.75;100.00;103942.13;5057335;28;959;-78
2023/01/23 08:48:25;;;;;;;;;;;;;;;5.66;100.00;103946.69;5057305;28;818;-78
2023/01/23 08:50:58;;;;;;;;;;;;;;;5.61;100.00;103946.75;5056990;28;1216;-78
2023/01/23 08:53:24;;;;;;;;;;;;;;;5.59;100.00;103944.97;5057396;28;704;-78
2023/01/23 08:55:51;;;;;;;;;;;;;;;5.46;100.00;103946.88;5057351;28;1051;-78
2023/01/23 08:58:17;;;;;;;;;;;;;;;5.48;100.00;103947.75;5057133;28;810;-78
2023/01/23 09:00:43;;;;;;;;;;;;;;;5.53;100.00;103943.28;5056382;28;1370;-78
2023/01/23 09:03:09;;;;;;;;;;;;;;;5.58;100.00;103945.88;5057005;28;1981;-78
2023/01/23 09:05:35;;;;;;;;;;;;;;;5.60;100.00;103942.28;5057259;28;859;-78
2023/01/23 09:08:01;;;;;;;;;;;;;;;5.62;100.00;103937.84;5057203;28;805;-78
2023/01/23 09:10:27;;;;;;;;;;;;;;;5.66;100.00;103938.69;5056918;28;1184;-78
2023/01/23 09:12:54;;;;;;;;;;;;;;;5.67;100.00;103941.34;5056927;28;747;-78
2023/01/23 09:15:21;;;;;;;;;;;;;;;5.69;100.00;103942.19;5057418;28;870;-78
2023/01/23 09:17:48;;;;;;;;;;;;;;;5.69;100.00;103941.31;5056889;28;793;-78
2023/01/23 09:20:14;;;;;;;;;;;;;;;5.71;100.00;103940.41;5056787;28;1189;-78
2023/01/23 09:22:40;;;;;;;;;;;;;;;5.73;100.00;103951.06;5057193;28;1898;-78
2023/01/23 09:25:07;;;;;;;;;;;;;;;5.75;100.00;103952.78;5057043;28;712;-78
2023/01/23 09:27:33;;;;;;;;;;;;;;;5.78;100.00;103949.22;5057153;28;810;-78
2023/01/23 09:29:59;;;;;;;;;;;;;;;5.82;100.00;103963.41;5056587;28;818;-78
2023/01/23 09:32:25;;;;;;;;;;;;;;;5.75;100.00;103962.56;5057174;28;1268;-78
2023/01/23 09:34:51;;;;;;;;;;;;;;;5.69;100.00;103966.16;5057056;28;806;-78
2023/01/23 09:37:17;;;;;;;;;;;;;;;5.63;100.00;103962.69;5056300;28;736;-78
2023/01/23 09:39:43;;;;;;;;;;;;;;;5.59;100.00;103960.94;5056200;28;877;-78
2023/01/23 09:42:19;;;;;;;;;;;;;;;5.61;100.00;103957.41;5055289;28;1189;-78
2023/01/23 09:44:49;;;;;;;;;;;;;;;5.52;100.00;103954.81;5055467;28;1894;-78
2023/01/23 09:47:21;;;;;;;;;;;;;;;5.59;100.00;103943.19;5055892;28;707;-78
2023/01/23 09:49:54;;;;;;;;;;;;;;;5.69;100.00;103944.84;5055691;28;577;-78
2023/01/23 09:52:24;;;;;;;;;;;;;;;5.55;100.00;103949.44;5054119;28;1200;-78
2023/01/23 09:55:42;;;;;;;;;;;;;;;5.53;100.00;103948.59;5055237;28;814;-78
2023/01/23 09:58:22;;;;;;;;;;;;;;;5.60;100.00;103950.28;5022332;28;1183;-78
2023/01/23 10:00:50;;;;;;;;;;;;;;;5.60;100.00;103952.06;5055039;28;1347;-78
2023/01/23 10:03:16;;;;;;;;;;;;;;;5.61;100.00;103954.72;5055362;28;1951;-78
2023/01/23 10:05:54;;;;;;;;;;;;;;;5.69;100.00;103957.28;5055558;28;950;-78
2023/01/23 10:08:26;;;;;;;;;;;;;;;5.69;100.00;103963.50;5055655;28;781;-78
2023/01/23 10:11:25;;;;;;;;;;;;;;;5.78;100.00;103958.97;5054921;28;1204;-78
2023/01/23 10:13:57;;;;;;;;;;;;;;;5.92;100.00;103965.97;5055502;28;855;-78
2023/01/23 10:16:37;;;;;;;;;;;;;;;5.96;100.00;103965.03;5055566;28;893;-78
2023/01/23 10:19:39;;;;;;;;;;;;;;;6.01;100.00;103973.00;5055528;28;608;-78
2023/01/23 10:22:32;;;;;;;;;;;;;;;6.00;100.00;103971.22;5054993;28;1335;-78
2023/01/23 10:25:01;;;;;;;;;;;;;;;5.98;100.00;103965.88;5055450;28;1898;-78
2023/01/23 10:27:34;;;;;;;;;;;;;;;5.91;100.00;103960.66;5055570;28;818;-78
2023/01/23 10:30:37;;;;;;;;;;;;;;;5.83;100.00;103958.03;5054741;28;713;-78
2023/01/23 10:33:32;;;;;;;;;;;;;;;5.94;100.00;103961.50;5055541;28;602;-78
2023/01/23 10:36:06;;;;;;;;;;;;;;;6.08;100.00;103966.66;5055857;28;533;-78
2023/01/23 10:38:58;;;;;;;;;;;;;;;6.08;100.00;103961.34;5055545;28;514;-78
2023/01/23 10:41:24;;;;;;;;;;;;;;;6.10;100.00;103959.56;5054611;28;1367;-78
2023/01/23 10:43:52;;;;;;;;;;;;;;;6.07;100.00;103961.34;5054873;28;1956;-78
2023/01/23 10:46:22;;;;;;;;;;;;;;;6.12;100.00;103959.53;5055687;28;521;-78
2023/01/23 10:48:51;;;;;;;;;;;;;;;6.15;100.00;103963.03;5055271;28;770;-78
2023/01/23 10:51:23;;;;;;;;;;;;;;;6.21;100.00;103956.75;5054640;28;1271;-78
2023/01/23 10:54:06;;;;;;;;;;;;;;;6.13;100.00;103958.63;5055239;28;744;-78
2023/01/23 10:56:33;;;;;;;;;;;;;;;6.16;100.00;103955.91;5055445;28;526;-79
2023/01/23 10:59:01;;;;;;;;;;;;;;;6.22;100.00;103963.84;5055849;28;980;-78
2023/01/23 11:01:30;;;;;;;;;;;;;;;6.30;100.00;103969.97;5054944;28;1279;-78
2023/01/23 11:04:07;;;;;;;;;;;;;;;6.32;100.00;103974.38;5056845;28;1898;-78
2023/01/23 11:06:33;;;;;;;;;;;;;;;6.36;100.00;103969.88;5059890;28;573;-78
2023/01/23 11:09:00;;;;;;;;;;;;;;;6.39;100.00;103966.28;5059475;28;815;-78
2023/01/23 11:11:29;;;;;;;;;;;;;;;6.41;100.00;103968.06;5058740;28;1180;-78
2023/01/23 11:14:04;;;;;;;;;;;;;;;6.41;100.00;103976.06;5059222;28;956;-78
2023/01/23 11:16:30;;;;;;;;;;;;;;;6.43;100.00;103973.34;5059972;28;920;-78
2023/01/23 11:19:08;;;;;;;;;;;;;;;6.27;100.00;103984.19;5059113;28;889;-78
2023/01/23 11:21:36;;;;;;;;;;;;;;;6.26;100.00;103974.44;5058489;28;1287;-78
2023/01/23 11:24:07;;;;;;;;;;;;;;;6.25;100.00;103969.13;5059162;28;1889;-78
2023/01/23 11:26:35;;;;;;;;;;;;;;;6.30;100.00;103972.66;5059270;28;818;-78
2023/01/23 11:29:02;;;;;;;;;;;;;;;6.31;100.00;103969.94;5058675;28;819;-79
2023/01/23 11:31:30;;;;;;;;;;;;;;;6.39;100.00;103967.19;5058259;28;1189;-79
2023/01/23 11:34:02;;;;;;;;;;;;;;;6.43;100.00;103960.03;5058953;28;799;-79
2023/01/23 11:36:34;;;;;;;;;;;;;;;6.41;100.00;103961.84;5059152;28;556;-79
2023/01/23 11:39:17;;;;;;;;;;;;;;;6.46;100.00;103965.31;5058980;28;786;-79
2023/01/23 11:41:45;;;;;;;;;;;;;;;6.55;100.00;103958.06;5058810;28;1272;-78
2023/01/23 11:44:17;;;;;;;;;;;;;;;6.61;100.00;103966.00;5058491;28;1969;-78
2023/01/23 11:47:21;;;;;;;;;;;;;;;6.61;100.00;103962.44;5059155;28;885;-78
2023/01/23 11:50:36;;;;;;;;;;;;;;;6.59;100.00;103956.25;5058703;28;909;-78
2023/01/23 11:53:19;;;;;;;;;;;;;;;6.49;100.00;103958.16;5045135;28;1249;-78
2023/01/23 11:56:12;;;;;;;;;;;;;;;6.54;100.00;103958.97;5059047;28;580;-79
2023/01/23 11:58:59;;;;;;;;;;;;;;;6.58;100.00;103959.81;5058704;28;689;-79
2023/01/23 12:01:34;;;;;;;;;;;;;;;6.61;100.00;103957.13;5057240;28;1209;-78
2023/01/23 12:04:24;;;;;;;;;;;;;;;6.65;100.00;103956.16;5057709;28;1965;-78
2023/01/23 12:07:20;;;;;;;;;;;;;;;6.75;100.00;103948.91;5057786;28;558;-78
2023/01/23 12:10:13;;;;;;;;;;;;;;;6.74;100.00;103941.81;5056279;28;829;-78
2023/01/23 12:12:45;;;;;;;;;;;;;;;6.73;100.00;103953.38;5057922;28;561;-78
2023/01/23 12:15:43;;;;;;;;;;;;;;;6.68;100.00;103950.75;5055526;28;831;-78
2023/01/23 12:18:37;;;;;;;;;;;;;;;6.61;100.00;103954.44;5051519;28;1148;-78
2023/01/23 12:21:25;;;;;;;;;;;;;;;6.49;100.00;103952.84;5057418;28;1284;-78
2023/01/23 12:23:53;;;;;;;;;;;;;;;6.55;100.00;103950.06;5057699;28;1878;-78
2023/01/23 12:26:21;;;;;;;;;;;;;;;6.58;100.00;103944.69;5057421;28;902;-78
2023/01/23 12:29:26;;;;;;;;;;;;;;;6.59;100.00;103948.25;5057181;28;846;-78
2023/01/23 12:32:22;;;;;;;;;;;;;;;6.59;100.00;103946.47;5056938;28;1457;-78
2023/01/23 12:35:06;;;;;;;;;;;;;;;6.57;100.00;103953.59;5057606;28;830;-78
2023/01/23 12:37:50;;;;;;;;;;;;;;;6.68;100.00;103957.88;5057573;28;589;-78
2023/01/23 12:40:25;;;;;;;;;;;;;;;6.74;100.00;103948.03;5057022;28;1264;-80
2023/01/23 12:43:03;;;;;;;;;;;;;;;6.78;100.00;103955.06;5060202;28;628;-79
2023/01/23 12:45:31;;;;;;;;;;;;;;;6.75;100.00;103955.13;5060465;28;1951;-79
2023/01/23 12:48:05;;;;;;;;;;;;;;;6.64;100.00;103956.19;5060621;28;795;-80
2023/01/23 12:50:43;;;;;;;;;;;;;;;6.56;100.00;103946.50;5059348;28;1379;-79
2023/01/23 12:53:12;;;;;;;;;;;;;;;6.64;100.00;103957.06;5059787;28;854;-79
2023/01/23 12:55:59;;;;;;;;;;;;;;;6.71;100.00;103949.88;5060537;28;918;-79
2023/01/23 12:58:28;;;;;;;;;;;;;;;6.79;100.00;103947.97;5060726;28;520;-79
2023/01/23 13:01:03;;;;;;;;;;;;;;;6.84;100.00;103948.75;5060465;28;1283;-79
2023/01/23 13:04:00;;;;;;;;;;;;;;;6.87;100.00;103959.38;5061170;28;1878;-79
2023/01/23 13:06:56;;;;;;;;;;;;;;;6.82;100.00;103955.91;5061075;28;620;-79
2023/01/23 13:09:40;;;;;;;;;;;;;;;6.78;100.00;103957.72;5061214;28;550;-79
2023/01/23 13:12:20;;;;;;;;;;;;;;;6.69;100.00;103963.22;5059782;28;1327;-79
2023/01/23 13:14:47;;;;;;;;;;;;;;;6.64;100.00;103961.50;5060708;28;531;-79